createdAt,value
2023-05-14T00:01:04.671Z,54.29
2023-05-14T00:03:31.675Z,54.40
2023-05-14T00:05:58.453Z,55.47
2023-05-14T00:08:25.029Z,56.26
2023-05-14T00:10:52.056Z,56.19
2023-05-14T00:13:20.000Z,56.07
2023-05-14T00:15:46.601Z,55.99
2023-05-14T00:18:13.250Z,56.17
2023-05-14T00:20:40.521Z,55.72
2023-05-14T00:23:07.162Z,55.81
2023-05-14T00:25:33.940Z,55.49
2023-05-14T00:28:00.566Z,55.62
2023-05-14T00:30:28.733Z,55.77
2023-05-14T00:32:55.409Z,55.17
2023-05-14T00:35:22.118Z,55.14
2023-05-14T00:37:48.875Z,54.76
2023-05-14T00:40:15.624Z,54.87
2023-05-14T00:42:42.441Z,55.34
2023-05-14T00:45:09.805Z,55.37
2023-05-14T00:47:38.065Z,55.66
2023-05-14T00:50:05.906Z,55.47
2023-05-14T00:52:33.185Z,55.23
2023-05-14T00:55:03.149Z,55.32
2023-05-14T00:57:29.833Z,55.06
2023-05-14T00:59:56.541Z,54.94
2023-05-14T01:02:23.273Z,55.37
2023-05-14T01:04:52.075Z,55.36
2023-05-14T01:07:29.477Z,55.00
2023-05-14T01:10:00.850Z,54.55
2023-05-14T01:12:33.982Z,54.71
2023-05-14T01:15:04.850Z,54.81
2023-05-14T01:17:33.421Z,54.65
2023-05-14T01:20:02.229Z,54.21
2023-05-14T01:22:30.114Z,54.94
2023-05-14T01:24:56.673Z,55.26
2023-05-14T01:27:31.276Z,54.71
2023-05-14T01:30:07.747Z,53.83
2023-05-14T01:32:35.365Z,53.72
2023-05-14T01:35:02.577Z,53.19
2023-05-14T01:37:32.072Z,53.12
2023-05-14T01:39:59.957Z,53.11
2023-05-14T01:42:28.197Z,53.25
2023-05-14T01:44:55.026Z,53.10
2023-05-14T01:47:21.575Z,53.35
2023-05-14T01:49:48.300Z,53.06
2023-05-14T01:52:14.876Z,53.50
2023-05-14T01:54:42.837Z,53.08
2023-05-14T01:57:09.408Z,53.80
2023-05-14T01:59:36.342Z,54.49
2023-05-14T02:02:02.954Z,54.37
2023-05-14T02:04:29.563Z,53.75
2023-05-14T02:06:56.372Z,53.49
2023-05-14T02:09:22.945Z,52.71
2023-05-14T02:11:51.176Z,55.05
2023-05-14T02:14:17.704Z,55.32
2023-05-14T02:16:44.252Z,55.22
2023-05-14T02:19:10.973Z,55.90
2023-05-14T02:21:37.533Z,56.38
2023-05-14T02:24:04.137Z,56.49
2023-05-14T02:26:30.744Z,57.31
2023-05-14T02:28:58.666Z,57.78
2023-05-14T02:31:25.637Z,57.53
2023-05-14T02:33:52.296Z,56.92
2023-05-14T02:36:19.018Z,58.01
2023-05-14T02:38:45.615Z,57.25
2023-05-14T02:41:12.170Z,57.96
2023-05-14T02:43:38.728Z,57.98
2023-05-14T02:46:06.648Z,59.17
2023-05-14T02:48:33.283Z,59.06
2023-05-14T02:51:00.147Z,58.54
2023-05-14T02:53:26.646Z,58.91
2023-05-14T02:55:53.465Z,59.09
2023-05-14T02:58:20.029Z,59.71
2023-05-14T03:00:52.832Z,59.85
2023-05-14T03:03:21.429Z,60.36
2023-05-14T03:05:48.745Z,60.56
2023-05-14T03:08:15.510Z,61.16
2023-05-14T03:10:42.107Z,61.23
2023-05-14T03:13:08.771Z,60.79
2023-05-14T03:15:35.571Z,61.15
2023-05-14T03:18:02.293Z,61.59
2023-05-14T03:20:30.315Z,61.91
2023-05-14T03:22:56.907Z,62.15
2023-05-14T03:25:23.717Z,62.11
2023-05-14T03:27:50.290Z,62.32
2023-05-14T03:30:17.019Z,62.14
2023-05-14T03:32:43.863Z,62.72
2023-05-14T03:35:10.761Z,62.64
2023-05-14T03:37:38.701Z,62.69
2023-05-14T03:40:06.884Z,62.87
2023-05-14T03:42:33.498Z,62.92
2023-05-14T03:45:00.027Z,62.90
2023-05-14T03:47:26.739Z,62.54
2023-05-14T03:49:53.324Z,63.05
2023-05-14T03:52:19.925Z,62.61
2023-05-14T03:54:47.898Z,62.75
2023-05-14T03:57:14.632Z,63.02
2023-05-14T03:59:41.199Z,62.60
2023-05-14T04:02:07.835Z,62.98
2023-05-14T04:04:34.434Z,63.21
2023-05-14T04:07:01.489Z,63.71
2023-05-14T04:09:28.084Z,63.21
2023-05-14T04:11:56.223Z,62.42
2023-05-14T04:14:22.858Z,61.87
2023-05-14T04:16:49.432Z,61.02
2023-05-14T04:19:16.358Z,60.31
2023-05-14T04:21:43.174Z,59.97
2023-05-14T04:24:09.825Z,59.51
2023-05-14T04:26:36.392Z,59.20
2023-05-14T04:29:04.509Z,58.93
2023-05-14T04:31:31.060Z,57.85
2023-05-14T04:33:57.623Z,57.29
2023-05-14T04:36:24.236Z,57.07
2023-05-14T04:38:50.823Z,57.01
2023-05-14T04:41:17.390Z,56.71
2023-05-14T04:43:43.989Z,55.96
2023-05-14T04:46:11.955Z,53.60
2023-05-14T04:48:38.838Z,50.14
2023-05-14T04:51:07.091Z,47.28
2023-05-14T04:53:33.957Z,45.88
2023-05-14T04:56:00.517Z,43.04
2023-05-14T04:58:27.294Z,38.85
2023-05-14T05:00:53.904Z,35.03
2023-05-14T05:03:22.020Z,33.04
2023-05-14T05:05:48.682Z,32.08
2023-05-14T05:08:15.265Z,31.12
2023-05-14T05:10:41.820Z,29.15
2023-05-14T05:13:08.390Z,29.04
2023-05-14T05:15:35.002Z,33.33
2023-05-14T05:18:01.773Z,34.25
2023-05-14T05:20:29.974Z,33.26
2023-05-14T05:22:56.763Z,32.91
2023-05-14T05:25:23.387Z,35.43
2023-05-14T05:27:49.940Z,39.59
2023-05-14T05:30:16.837Z,42.75
2023-05-14T05:32:43.661Z,45.32
2023-05-14T05:35:10.274Z,46.50
2023-05-14T05:37:38.689Z,47.13
2023-05-14T05:40:06.625Z,47.12
2023-05-14T05:42:33.403Z,46.62
2023-05-14T05:44:59.982Z,45.22
2023-05-14T05:47:26.979Z,43.21
2023-05-14T05:49:53.619Z,40.77
2023-05-14T05:52:20.258Z,39.68
2023-05-14T05:54:48.173Z,37.43
2023-05-14T05:57:15.084Z,36.34
2023-05-14T05:59:41.724Z,36.25
2023-05-14T06:02:08.735Z,35.21
2023-05-14T06:04:35.361Z,34.69
2023-05-14T06:07:01.957Z,35.10
2023-05-14T06:09:28.729Z,34.25
2023-05-14T06:11:56.639Z,34.88
2023-05-14T06:14:23.320Z,35.11
2023-05-14T06:16:49.964Z,34.81
2023-05-14T06:19:16.562Z,35.77
2023-05-14T06:21:43.260Z,35.83
2023-05-14T06:24:10.332Z,35.66
2023-05-14T06:26:36.887Z,35.80
2023-05-14T06:29:04.979Z,35.80
2023-05-14T06:31:31.540Z,35.31
2023-05-14T06:33:58.276Z,35.90
2023-05-14T06:36:24.872Z,37.29
2023-05-14T06:38:51.527Z,37.39
2023-05-14T06:41:18.088Z,36.20
2023-05-14T06:43:44.700Z,36.63
2023-05-14T06:46:12.633Z,36.19
2023-05-14T06:48:39.259Z,34.45
2023-05-14T06:51:05.989Z,34.21
2023-05-14T06:53:32.601Z,33.68
2023-05-14T06:55:59.359Z,33.50
2023-05-14T06:58:25.962Z,33.03
2023-05-14T07:00:52.541Z,33.48
2023-05-14T07:03:20.452Z,33.11
2023-05-14T07:05:47.030Z,32.92
2023-05-14T07:08:13.838Z,32.95
2023-05-14T07:10:40.393Z,32.17
2023-05-14T07:13:07.887Z,33.03
2023-05-14T07:15:34.793Z,33.41
2023-05-14T07:18:01.583Z,33.94
2023-05-14T07:20:29.781Z,33.86
2023-05-14T07:22:56.362Z,33.28
2023-05-14T07:25:23.003Z,33.33
2023-05-14T07:27:49.598Z,33.16
2023-05-14T07:30:16.199Z,33.14
2023-05-14T07:32:43.411Z,32.59
2023-05-14T07:35:10.294Z,32.19
2023-05-14T07:37:38.503Z,31.47
2023-05-14T07:40:06.226Z,32.83
2023-05-14T07:42:36.664Z,32.47
2023-05-14T07:45:04.568Z,32.34
2023-05-14T07:47:31.734Z,31.87
2023-05-14T07:49:59.047Z,32.13
2023-05-14T07:52:25.617Z,32.57
2023-05-14T07:54:53.691Z,31.90
2023-05-14T07:57:20.297Z,31.77
2023-05-14T07:59:47.869Z,31.60
2023-05-14T08:02:14.895Z,32.60
2023-05-14T08:04:41.731Z,32.11
2023-05-14T08:07:08.807Z,30.73
2023-05-14T08:09:35.745Z,32.23
2023-05-14T08:12:04.385Z,31.91
2023-05-14T08:14:31.105Z,32.20
2023-05-14T08:16:57.824Z,32.19
2023-05-14T08:19:24.451Z,31.89
2023-05-14T08:21:51.176Z,32.61
2023-05-14T08:24:19.004Z,32.88
2023-05-14T08:26:45.585Z,33.52
2023-05-14T08:29:16.304Z,32.91
2023-05-14T08:31:43.714Z,32.64
2023-05-14T08:34:10.364Z,32.72
2023-05-14T08:36:37.840Z,32.92
2023-05-14T08:39:04.393Z,32.98
2023-05-14T08:41:31.677Z,33.19
2023-05-14T08:44:06.734Z,33.86
2023-05-14T08:46:36.991Z,34.49
2023-05-14T08:49:10.793Z,33.45
2023-05-14T08:51:38.183Z,32.18
2023-05-14T08:54:05.801Z,32.81
2023-05-14T08:56:33.316Z,33.22
2023-05-14T08:58:59.877Z,30.58
2023-05-14T09:01:27.390Z,32.33
2023-05-14T09:03:56.496Z,32.23
2023-05-14T09:06:25.461Z,31.87
2023-05-14T09:08:53.336Z,31.90
2023-05-14T09:11:19.931Z,31.45
2023-05-14T09:13:46.496Z,30.61
2023-05-14T09:16:13.548Z,30.36
2023-05-14T09:18:43.586Z,29.95
2023-05-14T09:21:13.650Z,25.34
2023-05-14T09:23:42.984Z,26.71
2023-05-14T09:26:09.650Z,29.61
2023-05-14T09:28:40.191Z,28.51
2023-05-14T09:31:06.870Z,26.52
2023-05-14T09:33:33.507Z,26.46
2023-05-14T09:36:00.708Z,26.36
2023-05-14T09:38:32.792Z,27.26
2023-05-14T09:41:00.284Z,27.69
2023-05-14T09:43:26.863Z,27.77
2023-05-14T09:45:54.167Z,26.99
2023-05-14T09:48:20.850Z,27.91
2023-05-14T09:50:47.496Z,28.60
2023-05-14T09:53:14.240Z,28.56
2023-05-14T09:55:42.267Z,27.83
2023-05-14T09:58:09.019Z,28.25
2023-05-14T10:00:35.701Z,28.63
2023-05-14T10:03:05.669Z,29.96
2023-05-14T10:05:35.015Z,28.30
2023-05-14T10:08:04.620Z,28.82
2023-05-14T10:10:32.505Z,29.13
2023-05-14T10:13:03.950Z,28.68
2023-05-14T10:15:36.905Z,29.30
2023-05-14T10:18:09.585Z,28.02
2023-05-14T10:20:37.713Z,28.29
2023-05-14T10:23:04.773Z,28.61
2023-05-14T10:25:31.965Z,29.14
2023-05-14T10:28:00.267Z,28.15
2023-05-14T10:30:27.211Z,28.56
2023-05-14T10:33:11.567Z,28.65
2023-05-14T10:36:00.899Z,27.86
2023-05-14T10:38:28.642Z,29.04
2023-05-14T10:40:57.465Z,28.28
2023-05-14T10:43:27.656Z,27.27
2023-05-14T10:45:54.393Z,28.36
2023-05-14T10:48:21.011Z,27.18
2023-05-14T10:50:48.264Z,25.67
2023-05-14T10:53:15.272Z,26.91
2023-05-14T10:55:43.261Z,27.02
2023-05-14T10:58:10.673Z,24.86
2023-05-14T11:00:39.551Z,26.17
2023-05-14T11:03:07.051Z,25.88
2023-05-14T11:05:34.343Z,26.07
2023-05-14T11:08:04.366Z,25.26
2023-05-14T11:10:32.430Z,24.93
2023-05-14T11:12:59.449Z,24.93
2023-05-14T11:15:28.832Z,25.52
2023-05-14T11:17:58.109Z,24.78
2023-05-14T11:20:25.050Z,24.21
2023-05-14T11:22:52.034Z,24.86
2023-05-14T11:25:18.582Z,24.13
2023-05-14T11:27:46.228Z,24.18
2023-05-14T11:30:14.804Z,23.84
2023-05-14T11:32:43.467Z,24.57
2023-05-14T11:35:11.927Z,25.43
2023-05-14T11:37:38.922Z,25.05
2023-05-14T11:40:08.981Z,25.84
2023-05-14T11:42:36.930Z,26.51
2023-05-14T11:45:04.182Z,26.35
2023-05-14T11:47:30.974Z,26.25
2023-05-14T11:49:58.817Z,26.00
2023-05-14T11:52:26.800Z,25.43
2023-05-14T11:54:53.393Z,25.12
2023-05-14T11:57:20.946Z,26.20
2023-05-14T11:59:48.515Z,25.03
2023-05-14T12:02:17.394Z,24.73
2023-05-14T12:04:44.882Z,24.12
2023-05-14T12:07:12.832Z,23.68
2023-05-14T12:09:45.089Z,24.54
2023-05-14T12:12:12.888Z,23.63
2023-05-14T12:14:42.501Z,23.75
2023-05-14T12:17:13.930Z,23.92
2023-05-14T12:19:41.600Z,21.83
2023-05-14T12:22:08.420Z,23.56
2023-05-14T12:24:35.232Z,23.08
2023-05-14T12:27:03.640Z,23.57
2023-05-14T12:29:30.398Z,24.08
2023-05-14T12:31:57.956Z,24.63
2023-05-14T12:34:24.570Z,25.74
2023-05-14T12:36:51.185Z,25.51
2023-05-14T12:39:17.872Z,26.50
2023-05-14T12:41:44.654Z,25.51
2023-05-14T12:44:12.776Z,24.92
2023-05-14T12:46:39.497Z,25.71
2023-05-14T12:49:06.045Z,24.59
2023-05-14T12:51:32.705Z,25.13
2023-05-14T12:53:59.288Z,24.84
2023-05-14T12:56:26.015Z,24.25
2023-05-14T12:58:52.841Z,24.55
2023-05-14T13:01:20.937Z,26.17
2023-05-14T13:03:47.644Z,24.79
2023-05-14T13:06:14.306Z,26.13
2023-05-14T13:08:42.612Z,26.57
2023-05-14T13:11:09.322Z,24.39
2023-05-14T13:13:35.925Z,25.24
2023-05-14T13:16:03.387Z,25.29
2023-05-14T13:18:31.759Z,25.02
2023-05-14T13:20:58.434Z,26.59
2023-05-14T13:23:25.007Z,25.87
2023-05-14T13:25:51.941Z,25.58
2023-05-14T13:28:18.504Z,25.52
2023-05-14T13:31:03.987Z,25.83
2023-05-14T13:33:32.962Z,24.92
2023-05-14T13:36:00.055Z,25.42
2023-05-14T13:38:27.103Z,25.69
2023-05-14T13:40:54.151Z,26.11
2023-05-14T13:43:20.908Z,24.32
2023-05-14T13:45:47.470Z,24.90
2023-05-14T13:48:14.086Z,24.89
2023-05-14T13:50:42.096Z,25.85
2023-05-14T13:53:08.629Z,26.46
2023-05-14T13:55:35.654Z,27.11
2023-05-14T13:58:02.631Z,28.69
2023-05-14T14:00:29.311Z,27.90
2023-05-14T14:02:55.971Z,28.82
2023-05-14T14:05:23.323Z,27.27
2023-05-14T14:07:54.770Z,26.90
2023-05-14T14:10:28.158Z,25.99
2023-05-14T14:12:57.745Z,26.34
2023-05-14T14:15:24.531Z,26.58
2023-05-14T14:17:51.368Z,25.66
2023-05-14T14:20:18.159Z,27.81
2023-05-14T14:22:44.718Z,26.90
2023-05-14T14:25:12.702Z,27.45
2023-05-14T14:27:39.475Z,27.08
2023-05-14T14:30:08.105Z,28.43
2023-05-14T14:32:34.884Z,29.46
2023-05-14T14:35:01.566Z,29.36
2023-05-14T14:37:28.271Z,28.75
2023-05-14T14:39:54.866Z,28.62
2023-05-14T14:42:23.403Z,28.33
2023-05-14T14:44:50.556Z,27.26
2023-05-14T14:47:17.190Z,27.21
2023-05-14T14:49:43.762Z,26.55
2023-05-14T14:52:10.541Z,26.18
2023-05-14T14:54:37.600Z,27.28
2023-05-14T14:57:05.081Z,28.55
2023-05-14T14:59:35.008Z,30.66
2023-05-14T15:02:01.969Z,31.57
2023-05-14T15:04:28.526Z,31.76
2023-05-14T15:06:55.103Z,32.00
2023-05-14T15:09:21.681Z,31.84
2023-05-14T15:11:48.290Z,31.40
2023-05-14T15:14:14.852Z,30.94
2023-05-14T15:16:42.951Z,31.25
2023-05-14T15:19:09.553Z,31.18
2023-05-14T15:21:36.219Z,31.77
2023-05-14T15:24:03.356Z,31.09
2023-05-14T15:26:30.017Z,30.67
2023-05-14T15:28:56.565Z,29.92
2023-05-14T15:31:23.374Z,28.94
2023-05-14T15:33:51.490Z,29.44
2023-05-14T15:36:18.071Z,29.73
2023-05-14T15:38:44.963Z,28.93
2023-05-14T15:41:11.562Z,29.31
2023-05-14T15:44:07.170Z,29.22
2023-05-14T15:46:33.867Z,29.54
2023-05-14T15:49:01.780Z,29.38
2023-05-14T15:51:28.861Z,30.38
2023-05-14T15:53:55.539Z,30.51
2023-05-14T15:56:22.955Z,30.03
2023-05-14T15:58:49.972Z,31.23
2023-05-14T16:01:16.785Z,31.10
2023-05-14T16:03:43.672Z,31.42
2023-05-14T16:06:11.826Z,31.75
2023-05-14T16:08:38.567Z,30.84
2023-05-14T16:11:05.906Z,32.10
2023-05-14T16:13:32.543Z,31.54
2023-05-14T16:15:59.826Z,31.38
2023-05-14T16:18:26.867Z,31.34
2023-05-14T16:20:53.665Z,30.96
2023-05-14T16:23:23.919Z,31.47
2023-05-14T16:25:50.638Z,31.51
2023-05-14T16:28:17.409Z,31.47
2023-05-14T16:30:44.024Z,32.16
2023-05-14T16:33:10.810Z,31.82
2023-05-14T16:35:37.565Z,31.81
2023-05-14T16:38:04.204Z,31.37
2023-05-14T16:40:32.238Z,31.83
2023-05-14T16:42:58.842Z,31.54
2023-05-14T16:45:25.912Z,31.40
2023-05-14T16:47:52.860Z,30.56
2023-05-14T16:50:19.748Z,31.15
2023-05-14T16:52:46.525Z,31.86
2023-05-14T16:55:13.322Z,31.82
2023-05-14T16:57:41.366Z,32.19
2023-05-14T17:00:09.523Z,32.22
2023-05-14T17:02:36.265Z,31.07
2023-05-14T17:05:03.231Z,31.96
2023-05-14T17:07:30.099Z,32.21
2023-05-14T17:09:57.122Z,31.95
2023-05-14T17:12:23.842Z,32.22
2023-05-14T17:14:51.893Z,32.87
2023-05-14T17:17:18.842Z,32.80
2023-05-14T17:19:45.495Z,33.24
2023-05-14T17:22:12.314Z,33.62
2023-05-14T17:24:38.961Z,33.62
2023-05-14T17:27:06.004Z,33.67
2023-05-14T17:29:32.683Z,33.94
2023-05-14T17:32:00.733Z,34.47
2023-05-14T17:34:27.619Z,34.50
2023-05-14T17:36:54.189Z,34.77
2023-05-14T17:39:20.846Z,34.57
2023-05-14T17:41:47.429Z,35.06
2023-05-14T17:44:14.028Z,36.17
2023-05-14T17:46:40.703Z,36.76
2023-05-14T17:49:08.667Z,37.08
2023-05-14T17:51:35.250Z,37.60
2023-05-14T17:54:02.314Z,37.04
2023-05-14T17:56:29.606Z,37.92
2023-05-14T17:58:56.141Z,38.79
2023-05-14T18:01:22.782Z,38.23
2023-05-14T18:03:49.706Z,38.22
2023-05-14T18:06:17.777Z,37.92
2023-05-14T18:08:44.361Z,38.32
2023-05-14T18:11:10.950Z,38.80
2023-05-14T18:13:37.625Z,39.72
2023-05-14T18:16:05.154Z,40.12
2023-05-14T18:18:32.019Z,40.99
2023-05-14T18:20:58.589Z,44.29
2023-05-14T18:23:26.840Z,44.43
2023-05-14T18:25:53.997Z,44.33
2023-05-14T18:28:20.650Z,44.85
2023-05-14T18:30:47.426Z,46.59
2023-05-14T18:33:14.118Z,46.65
2023-05-14T18:35:41.646Z,46.51
2023-05-14T18:38:08.219Z,45.32
2023-05-14T18:40:36.179Z,45.68
2023-05-14T18:43:02.770Z,44.83
2023-05-14T18:45:29.516Z,43.05
2023-05-14T18:47:56.366Z,43.66
2023-05-14T18:50:22.955Z,43.15
2023-05-14T18:52:49.564Z,43.01
2023-05-14T18:55:16.128Z,44.07
2023-05-14T18:57:45.127Z,44.72
2023-05-14T19:00:13.046Z,44.29
2023-05-14T19:02:39.684Z,43.44
2023-05-14T19:05:07.395Z,43.35
2023-05-14T19:07:33.992Z,43.36
2023-05-14T19:10:00.600Z,43.00
2023-05-14T19:12:27.174Z,43.53
2023-05-14T19:14:55.336Z,43.52
2023-05-14T19:17:21.963Z,43.75
2023-05-14T19:19:48.531Z,43.73
2023-05-14T19:22:15.031Z,42.23
2023-05-14T19:24:41.609Z,43.99
2023-05-14T19:27:08.682Z,43.45
2023-05-14T19:29:35.590Z,43.33
2023-05-14T19:32:03.786Z,44.26
2023-05-14T19:34:30.679Z,43.31
2023-05-14T19:36:57.289Z,43.54
2023-05-14T19:39:23.880Z,43.31
2023-05-14T19:41:50.459Z,43.75
2023-05-14T19:44:17.160Z,42.98
2023-05-14T19:46:43.754Z,42.33
2023-05-14T19:49:11.720Z,41.44
2023-05-14T19:51:38.338Z,41.51
2023-05-14T19:54:05.164Z,41.79
2023-05-14T19:56:31.749Z,41.08
2023-05-14T19:58:58.358Z,41.35
2023-05-14T20:01:25.033Z,41.33
2023-05-14T20:03:51.695Z,41.43
2023-05-14T20:06:19.806Z,41.17
2023-05-14T20:08:46.409Z,40.92
2023-05-14T20:11:13.068Z,40.92
2023-05-14T20:13:39.630Z,41.03
2023-05-14T20:16:06.455Z,40.98
2023-05-14T20:18:33.198Z,40.67
2023-05-14T20:20:59.856Z,40.63
2023-05-14T20:23:27.797Z,40.76
2023-05-14T20:25:54.363Z,40.75
2023-05-14T20:28:21.022Z,40.95
2023-05-14T20:30:47.708Z,41.17
2023-05-14T20:33:14.439Z,40.73
2023-05-14T20:35:41.105Z,41.34
2023-05-14T20:38:07.709Z,41.59
2023-05-14T20:40:35.644Z,41.22
2023-05-14T20:43:02.398Z,40.55
2023-05-14T20:45:29.001Z,40.65
2023-05-14T20:47:55.584Z,41.08
2023-05-14T20:50:22.831Z,41.17
2023-05-14T20:52:49.530Z,41.43
2023-05-14T20:55:16.331Z,41.65
2023-05-14T20:57:44.314Z,43.48
2023-05-14T21:00:12.114Z,44.15
2023-05-14T21:02:38.843Z,42.68
2023-05-14T21:05:06.589Z,42.79
2023-05-14T21:07:33.150Z,42.25
2023-05-14T21:09:59.757Z,42.20
2023-05-14T21:12:26.518Z,42.13
2023-05-14T21:14:54.407Z,42.25
2023-05-14T21:17:21.169Z,42.19
2023-05-14T21:19:47.588Z,43.39
2023-05-14T21:22:14.125Z,44.74
2023-05-14T21:24:41.020Z,44.70
2023-05-14T21:27:07.794Z,46.09
2023-05-14T21:29:34.343Z,46.62
2023-05-14T21:32:02.348Z,46.46
2023-05-14T21:34:29.860Z,47.56
2023-05-14T21:36:58.381Z,47.28
2023-05-14T21:39:25.186Z,47.13
2023-05-14T21:41:51.838Z,47.56
2023-05-14T21:44:18.402Z,48.36
2023-05-14T21:46:45.040Z,48.27
2023-05-14T21:49:12.976Z,48.36
2023-05-14T21:51:44.676Z,48.58
2023-05-14T21:54:11.175Z,48.79
2023-05-14T21:56:38.114Z,49.22
2023-05-14T21:59:04.911Z,49.47
2023-05-14T22:01:32.591Z,49.21
2023-05-14T22:04:00.471Z,49.56
2023-05-14T22:06:28.453Z,50.06
2023-05-14T22:08:55.050Z,50.24
2023-05-14T22:11:21.475Z,50.20
2023-05-14T22:13:48.046Z,49.97
2023-05-14T22:16:14.781Z,50.55
2023-05-14T22:18:41.382Z,50.82
2023-05-14T22:21:08.012Z,50.61
2023-05-14T22:23:36.049Z,50.74
2023-05-14T22:26:03.276Z,51.22
2023-05-14T22:28:29.872Z,50.56
2023-05-14T22:30:56.595Z,50.89
2023-05-14T22:33:23.280Z,50.98
2023-05-14T22:35:50.048Z,50.78
2023-05-14T22:38:16.621Z,51.27
2023-05-14T22:40:44.515Z,52.14
2023-05-14T22:43:11.216Z,51.57
2023-05-14T22:45:37.784Z,51.97
2023-05-14T22:48:04.619Z,52.34
2023-05-14T22:50:31.305Z,52.78
2023-05-14T22:52:57.899Z,52.51
2023-05-14T22:55:24.691Z,53.08
2023-05-14T22:57:52.671Z,53.53
2023-05-14T23:00:19.566Z,53.72
2023-05-14T23:02:46.143Z,53.87
2023-05-14T23:05:12.877Z,53.81
2023-05-14T23:07:39.577Z,53.84
2023-05-14T23:10:06.978Z,54.73
2023-05-14T23:12:33.626Z,54.61
2023-05-14T23:15:01.579Z,54.13
2023-05-14T23:17:28.217Z,54.81
2023-05-14T23:19:54.941Z,54.61
2023-05-14T23:22:21.539Z,53.95
2023-05-14T23:24:48.089Z,53.68
2023-05-14T23:27:14.763Z,53.75
2023-05-14T23:29:41.321Z,54.74
2023-05-14T23:32:09.580Z,54.88
2023-05-14T23:34:36.144Z,55.32
2023-05-14T23:37:02.698Z,56.08
2023-05-14T23:39:29.425Z,56.07
2023-05-14T23:41:55.994Z,55.77
2023-05-14T23:44:22.506Z,56.19
2023-05-14T23:46:49.159Z,56.32
2023-05-14T23:49:17.261Z,56.70
2023-05-14T23:51:44.033Z,56.89
2023-05-14T23:54:10.612Z,56.78
2023-05-14T23:56:37.239Z,56.86
2023-05-14T23:59:03.918Z,57.65
